Sunday, August 19, 2018, 12:27 AM GMT
Back to Local

CYHU, Saint Hubert Airport

Location: , , Canada Lat: 45.517
Local Time: 12:27 AM GMT ( 0:27 GMT) Lon: -73.417
Time Zone: GMT Elev: 88 ft

Show me the last for .
Show Decoded

2018-08-19 00:00 METAR CYHU 190000Z AUTO 03003KT 9SM CLR 21/15 A2993 RMK SLP137 DENSITY ALT 800FT
                 =
2018-08-18 23:00 METAR CYHU 182300Z AUTO 06005KT 9SM CLR 23/16 A2992 RMK SLP133 DENSITY ALT
                 1000FT =
2018-08-18 22:00 METAR CYHU 182200Z AUTO 05006KT 9SM CLR 24/15 A2991 RMK SLP131 DENSITY ALT
                 1100FT =
2018-08-18 21:00 METAR CYHU 182100Z AUTO 05008G15KT 9SM CLR 25/15 A2990 RMK SLP128 DENSITY ALT
                 1200FT =
2018-08-18 20:00 METAR CYHU 182000Z AUTO 02012KT 360V060 9SM CLR 25/14 A2990 RMK SLP127 DENSITY
                 ALT 1200FT =
2018-08-18 19:00 METAR CYHU 181900Z AUTO 02009KT 360V070 9SM CLR 25/15 A2990 RMK SLP127 DENSITY
                 ALT 1200FT =
2018-08-18 18:00 METAR CYHU 181800Z AUTO 04012G17KT 9SM CLR 24/15 A2990 RMK SLP128 DENSITY ALT
                 1100FT =
2018-08-18 17:00 METAR CYHU 181700Z AUTO 02006KT 350V060 9SM BKN031 23/16 A2991 RMK SLP130
                 DENSITY ALT 1000FT =
2018-08-18 16:00 METAR CYHU 181600Z AUTO 05010G15KT 360V060 9SM BKN031 22/15 A2991 RMK SLP131
                 DENSITY ALT 800FT =
2018-08-18 15:00 METAR CYHU 181500Z AUTO 03011G16KT 9SM FEW025 21/16 A2991 RMK SLP131 DENSITY ALT
                 800FT =
2018-08-18 14:00 METAR CYHU 181400Z AUTO 35010KT 9SM CLR 20/15 A2991 RMK SLP129 DENSITY ALT 700FT
                 =
2018-08-18 13:00 METAR CYHU 181300Z AUTO 01007G15KT 9SM CLR 19/15 A2991 RMK SLP130 DENSITY ALT
                 600FT =
2018-08-18 12:00 METAR CYHU 181200Z AUTO 01010KT 9SM BKN230 18/14 A2990 RMK SLP128 DENSITY ALT
                 400FT =
2018-08-18 11:00 METAR CYHU 181100Z AUTO 36007KT 9SM BKN230 BKN250 17/14 A2989 RMK SLP123 DENSITY
                 ALT 300FT =
2018-08-18 10:00 METAR CYHU 181000Z AUTO 36007KT 9SM BKN200 BKN220 17/15 A2988 RMK SLP118 DENSITY
                 ALT 300FT =
2018-08-18 09:17 METAR CYHU 180917Z AUTO 36007KT 9SM SCT016 BKN026 OVC220 17/15 A2986 RMK SLP115
                 DENSITY ALT 300FT =
2018-08-18 09:00 METAR CYHU 180900Z AUTO 36007KT 9SM BKN016 17/15 A2986 RMK SLP113 DENSITY ALT
                 400FT =
2018-08-18 08:00 METAR CYHU 180800Z AUTO 36009KT 9SM OVC014 17/15 A2985 RMK SLP110 DENSITY ALT
                 400FT =
2018-08-18 07:00 METAR CYHU 180700Z AUTO 35010G17KT 9SM OVC010 17/15 A2984 RMK SLP106 DENSITY ALT
                 400FT =
2018-08-18 06:20 METAR CYHU 180620Z AUTO 36009KT 9SM OVC010 17/16 A2984 RMK SLP107 DENSITY ALT
                 400FT =
2018-08-18 06:00 METAR CYHU 180600Z AUTO 35009KT 9SM OVC008 17/16 A2984 RMK SLP108 DENSITY ALT
                 400FT =
2018-08-18 05:34 METAR CYHU 180534Z AUTO 36011KT 9SM OVC008 18/17 A2984 RMK SLP106 DENSITY ALT
                 400FT =
2018-08-18 05:21 METAR CYHU 180521Z AUTO 36010G16KT 9SM -RA OVC008 18/17 A2984 RMK SLP106 DENSITY
                 ALT 400FT =
2018-08-18 05:00 METAR CYHU 180500Z AUTO 35009KT 9SM OVC008 18/17 A2984 RMK SLP107 DENSITY ALT
                 500FT =
2018-08-18 04:00 METAR CYHU 180400Z AUTO 01006KT 350V050 9SM OVC010 18/17 A2983 RMK SLP104
                 DENSITY ALT 500FT =
2018-08-18 03:05 METAR CYHU 180305Z AUTO 02012KT 9SM OVC010 18/17 A2983 RMK SLP102 DENSITY ALT
                 500FT =
2018-08-18 03:00 METAR CYHU 180300Z AUTO 02011KT 9SM OVC008 18/17 A2983 RMK SLP103 DENSITY ALT
                 500FT =
2018-08-18 02:30 METAR CYHU 180230Z AUTO 01012G20KT 9SM BKN008 BKN014 OVC021 18/17 A2983 RMK
                 SLP103 DENSITY ALT 500FT =
2018-08-18 02:24 METAR CYHU 180224Z AUTO 02014G20KT 9SM SCT008 BKN014 OVC021 18/17 A2983 RMK
                 SLP103 DENSITY ALT 500FT =
2018-08-18 02:21 METAR CYHU 180221Z AUTO 01014G20KT 9SM BKN008 BKN014 OVC021 18/17 A2983 RMK
                 SLP103 DENSITY ALT 500FT =
2018-08-18 02:13 METAR CYHU 180213Z AUTO 01014G21KT 9SM -RA BKN008 BKN014 OVC019 18/17 A2983 RMK
                 SLP103 DENSITY ALT 500FT =
2018-08-18 02:10 METAR CYHU 180210Z AUTO 01018G26KT 9SM -RA SCT008 BKN014 OVC019 18/17 A2983 RMK
                 SLP103 DENSITY ALT 500FT =
2018-08-18 02:01 METAR CYHU 180201Z AUTO 01018G23KT 320V020 6SM -RA BR BKN008 OVC011 18/17 A2983
                 RMK SLP103 DENSITY ALT 500FT =
2018-08-18 02:00 METAR CYHU 180200Z AUTO 36018G23KT 320V020 5SM -RA BR BKN008 OVC011 18/17 A2983
                 RMK SLP102 DENSITY ALT 500FT =
2018-08-18 01:54 METAR CYHU 180154Z AUTO 34013G23KT 5SM RA BR OVC006 18/17 A2984 RMK PRESRR
                 SLP106 DENSITY ALT 500FT =
2018-08-18 01:51 METAR CYHU 180151Z AUTO 33017G23KT 320V020 6SM RA BR OVC008 18/17 A2983 RMK
                 PRESRR SLP105 DENSITY ALT 500FT =
2018-08-18 01:47 METAR CYHU 180147Z AUTO 35018KT 8SM +RA BKN008 OVC060 19/18 A2982 RMK SLP101
                 DENSITY ALT 600FT =
2018-08-18 01:45 METAR CYHU 180145Z AUTO 36017G22KT 9SM -RA BKN008 BKN031 OVC060 19/17 A2982 RMK
                 SLP100 DENSITY ALT 600FT =
2018-08-18 01:39 METAR CYHU 180139Z AUTO 36014G22KT 6SM BR SCT004 BKN009 BKN031 OVC065 19/18
                 A2982 RMK SLP101 DENSITY ALT 600FT =
2018-08-18 01:33 METAR CYHU 180133Z AUTO 01015G20KT 4SM BR BKN006 BKN022 BKN032 OVC065 20/19
                 A2981 RMK SLP098 DENSITY ALT 700FT =
2018-08-18 01:32 METAR CYHU 180132Z AUTO 01015G20KT 4SM BR SCT004 BKN019 BKN032 OVC065 20/19
                 A2981 RMK SLP098 DENSITY ALT 800FT =
2018-08-18 01:31 METAR CYHU 180131Z AUTO 01014G19KT 4SM BR SCT004 SCT012 BKN029 OVC065 20/19
                 A2981 RMK SLP098 DENSITY ALT 800FT =
2018-08-18 01:29 METAR CYHU 180129Z AUTO 36014KT 240V020 5SM BR SCT007 BKN023 BKN033 OVC065 21/20
                 A2982 RMK SLP098 DENSITY ALT 900FT =
2018-08-18 01:28 METAR CYHU 180128Z AUTO 35013KT 220V020 5SM BR SCT009 SCT021 BKN033 OVC065 21/20
                 A2982 RMK SLP098 DENSITY ALT 900FT =
2018-08-18 01:27 METAR CYHU 180127Z AUTO 35013KT 220V020 6SM BR SCT009 SCT021 BKN033 OVC065 22/20
                 A2982 RMK SLP098 DENSITY ALT 900FT =
2018-08-18 01:23 METAR CYHU 180123Z AUTO 35003KT 190V360 9SM SCT019 BKN033 BKN055 OVC065 23/22
                 A2981 RMK SLP097 DENSITY ALT 1100FT =
2018-08-18 01:16 METAR CYHU 180116Z AUTO 21002KT 8SM -RA SCT021 BKN033 BKN055 OVC068 23/22 A2981
                 RMK SLP096 DENSITY ALT 1100FT =
2018-08-18 01:14 METAR CYHU 180114Z AUTO 20003KT 8SM -RA BKN021 BKN033 BKN055 OVC070 23/22 A2981
                 RMK SLP096 DENSITY ALT 1100FT =
2018-08-18 01:03 METAR CYHU 180103Z AUTO 21007KT 8SM -RA SCT021 BKN027 BKN037 OVC055 23/22 A2982
                 RMK SLP098 DENSITY ALT 1100FT =
2018-08-18 01:01 METAR CYHU 180101Z AUTO 22007KT 8SM -RA BKN021 BKN029 OVC055 23/22 A2981 RMK
                 SLP097 DENSITY ALT 1100FT =
2018-08-18 01:00 METAR CYHU 180100Z AUTO 22006KT 8SM BKN021 BKN029 OVC055 23/22 A2981 RMK SLP097
                 DENSITY ALT 1100FT =
2018-08-18 00:56 METAR CYHU 180056Z AUTO 24005KT 9SM BKN021 BKN025 BKN032 OVC055 23/22 A2981 RMK
                 SLP097 DENSITY ALT 1100FT =

Support USWX by starting your Amazon purchase here.